createdAt,value
2023-04-29T08:01:10.873Z,25.00
2023-04-29T08:02:10.821Z,25.00
2023-04-29T08:03:10.922Z,25.00
2023-04-29T08:04:11.161Z,25.00
2023-04-29T08:05:11.477Z,25.00
2023-04-29T08:06:10.920Z,25.00
2023-04-29T08:07:10.799Z,0.00
2023-04-29T08:08:10.803Z,0.00
2023-04-29T08:09:10.807Z,0.00
2023-04-29T08:10:10.816Z,0.00
2023-04-29T08:11:10.754Z,0.00
2023-04-29T08:12:10.784Z,0.00
2023-04-29T08:13:10.754Z,0.00
2023-04-29T08:14:10.730Z,0.00
2023-04-29T08:15:10.753Z,0.00
2023-04-29T08:16:10.835Z,0.00
2023-04-29T08:17:10.689Z,0.00
2023-04-29T08:18:11.234Z,0.00
2023-04-29T08:19:10.687Z,0.00
2023-04-29T08:20:10.738Z,0.00
2023-04-29T08:21:10.683Z,0.00
2023-04-29T08:22:10.708Z,0.00
2023-04-29T08:23:10.731Z,0.00
2023-04-29T08:24:10.737Z,0.00
2023-04-29T08:25:10.698Z,0.00
2023-04-29T08:26:10.691Z,0.00
2023-04-29T08:27:10.639Z,0.00
2023-04-29T08:28:10.678Z,0.00
2023-04-29T08:29:10.641Z,0.00
2023-04-29T08:30:10.803Z,0.00
2023-04-29T08:31:10.812Z,0.00
2023-04-29T08:32:10.695Z,0.00
2023-04-29T08:33:10.760Z,0.00
2023-04-29T08:34:10.706Z,0.00
2023-04-29T08:35:10.717Z,0.00
2023-04-29T08:36:12.235Z,0.00
2023-04-29T08:37:11.219Z,0.00
2023-04-29T08:38:11.233Z,0.00
2023-04-29T08:39:10.705Z,0.00
2023-04-29T08:40:10.712Z,0.00
2023-04-29T08:41:10.691Z,0.00
2023-04-29T08:42:10.673Z,0.00
2023-04-29T08:43:13.297Z,0.00
2023-04-29T08:44:10.931Z,0.00
2023-04-29T08:45:10.680Z,0.00
2023-04-29T08:46:10.703Z,0.00
2023-04-29T08:47:11.201Z,0.00
2023-04-29T08:48:10.871Z,0.00
2023-04-29T08:49:10.628Z,0.00
2023-04-29T08:50:10.637Z,13.97
2023-04-29T08:51:10.640Z,29.70
2023-04-29T08:52:10.611Z,26.58
2023-04-29T08:53:10.623Z,24.06
2023-04-29T08:54:10.586Z,25.00
2023-04-29T08:55:10.575Z,25.51
2023-04-29T08:56:10.544Z,26.78
2023-04-29T08:57:12.251Z,25.00
2023-04-29T08:58:13.310Z,27.39
2023-04-29T08:59:10.615Z,27.03
2023-04-29T09:00:10.672Z,26.43
2023-04-29T09:01:10.594Z,25.28
2023-04-29T09:02:10.558Z,26.62
2023-04-29T09:03:10.603Z,25.81
2023-04-29T09:04:10.645Z,27.40
2023-04-29T09:05:10.520Z,25.09
2023-04-29T09:06:10.524Z,28.44
2023-04-29T09:07:10.534Z,29.27
2023-04-29T09:08:10.501Z,30.13
2023-04-29T09:09:10.482Z,29.75
2023-04-29T09:10:10.541Z,25.00
2023-04-29T09:11:10.503Z,25.00
2023-04-29T09:12:10.478Z,25.38
2023-04-29T09:13:10.488Z,27.19
2023-04-29T09:14:10.470Z,28.23
2023-04-29T09:15:10.462Z,30.67
2023-04-29T09:16:10.512Z,32.19
2023-04-29T09:17:11.227Z,25.00
2023-04-29T09:18:10.483Z,29.21
2023-04-29T09:19:10.455Z,28.06
2023-04-29T09:20:10.448Z,27.53
2023-04-29T09:21:10.409Z,25.44
2023-04-29T09:22:10.411Z,27.34
2023-04-29T09:23:10.378Z,32.21
2023-04-29T09:24:10.406Z,25.47
2023-04-29T09:25:10.447Z,26.25
2023-04-29T09:26:10.424Z,26.42
2023-04-29T09:27:10.392Z,26.69
2023-04-29T09:28:11.243Z,27.08
2023-04-29T09:29:13.262Z,28.61
2023-04-29T09:30:10.336Z,27.36
2023-04-29T09:31:10.415Z,30.15
2023-04-29T09:32:10.352Z,25.91
2023-04-29T09:33:10.393Z,29.54
2023-04-29T09:34:10.335Z,25.00
2023-04-29T09:35:10.353Z,26.41
2023-04-29T09:36:10.306Z,26.70
2023-04-29T09:37:10.296Z,27.37
2023-04-29T09:38:10.353Z,25.92
2023-04-29T09:39:10.271Z,26.93
2023-04-29T09:40:10.325Z,25.86
2023-04-29T09:41:10.257Z,27.93
2023-04-29T09:42:10.271Z,28.23
2023-04-29T09:43:10.268Z,27.67
2023-04-29T09:44:10.318Z,26.85
2023-04-29T09:45:10.820Z,31.96
2023-04-29T09:46:14.797Z,25.90
2023-04-29T09:47:10.283Z,26.22
2023-04-29T09:48:10.224Z,26.08
2023-04-29T09:49:10.218Z,26.22
2023-04-29T09:50:10.195Z,27.98
2023-04-29T09:51:10.268Z,28.97
2023-04-29T09:52:10.237Z,27.07
2023-04-29T09:53:10.224Z,28.43
2023-04-29T09:54:10.265Z,29.86
2023-04-29T09:55:10.211Z,27.72
2023-04-29T09:56:10.205Z,28.95
2023-04-29T09:57:10.217Z,30.26
2023-04-29T09:58:10.742Z,26.14
2023-04-29T09:59:10.200Z,27.89
2023-04-29T10:00:11.815Z,26.87
2023-04-29T10:01:10.262Z,30.39
2023-04-29T10:02:10.178Z,29.59
2023-04-29T10:03:10.879Z,25.30
2023-04-29T10:04:10.339Z,31.44
2023-04-29T10:05:10.511Z,30.42
2023-04-29T10:06:10.349Z,33.44
2023-04-29T10:07:10.370Z,33.46
2023-04-29T10:08:10.404Z,31.28
2023-04-29T10:09:10.349Z,28.91
2023-04-29T10:10:10.361Z,30.08
2023-04-29T10:11:10.298Z,29.49
2023-04-29T10:12:10.307Z,28.61
2023-04-29T10:13:10.287Z,29.60
2023-04-29T10:14:10.301Z,31.00
2023-04-29T10:15:10.270Z,26.56
2023-04-29T10:16:10.464Z,27.39
2023-04-29T10:17:10.413Z,28.06
2023-04-29T10:18:10.497Z,26.64
2023-04-29T10:19:10.496Z,27.85
2023-04-29T10:20:10.562Z,28.39
2023-04-29T10:21:10.527Z,28.56
2023-04-29T10:22:10.535Z,27.72
2023-04-29T10:23:10.553Z,28.98
2023-04-29T10:24:10.552Z,25.41
2023-04-29T10:25:10.536Z,27.25
2023-04-29T10:26:10.508Z,28.34
2023-04-29T10:27:10.513Z,29.02
2023-04-29T10:28:10.525Z,29.01
2023-04-29T10:29:10.581Z,26.11
2023-04-29T10:30:10.605Z,25.48
2023-04-29T10:31:10.923Z,29.27
2023-04-29T10:32:10.786Z,25.75
2023-04-29T10:33:10.811Z,27.89
2023-04-29T10:34:10.902Z,25.00
2023-04-29T10:35:10.952Z,26.63
2023-04-29T10:36:11.019Z,30.87
2023-04-29T10:37:11.088Z,28.06
2023-04-29T10:38:11.217Z,29.60
2023-04-29T10:39:11.278Z,25.45
2023-04-29T10:40:14.327Z,28.80
2023-04-29T10:41:11.264Z,29.12
2023-04-29T10:42:11.282Z,29.15
2023-04-29T10:43:11.314Z,30.07
2023-04-29T10:44:11.267Z,28.70
2023-04-29T10:45:11.759Z,27.16
2023-04-29T10:46:11.310Z,28.14
2023-04-29T10:47:11.237Z,26.90
2023-04-29T10:48:11.244Z,29.37
2023-04-29T10:49:11.280Z,27.15
2023-04-29T10:50:11.318Z,28.63
2023-04-29T10:51:11.380Z,26.40
2023-04-29T10:52:11.458Z,27.15
2023-04-29T10:53:11.498Z,25.41
2023-04-29T10:54:11.561Z,28.97
2023-04-29T10:55:11.631Z,26.39
2023-04-29T10:56:11.792Z,32.25
2023-04-29T10:57:11.799Z,29.09
2023-04-29T10:58:11.802Z,29.77
2023-04-29T10:59:11.870Z,31.16
2023-04-29T11:00:13.660Z,28.48
2023-04-29T11:01:11.931Z,32.12
2023-04-29T11:02:11.915Z,29.45
2023-04-29T11:03:11.997Z,33.42
2023-04-29T11:04:11.934Z,34.08
2023-04-29T11:05:11.875Z,32.75
2023-04-29T11:06:11.881Z,31.01
2023-04-29T11:07:11.899Z,29.17
2023-04-29T11:08:11.843Z,34.89
2023-04-29T11:09:11.870Z,30.83
2023-04-29T11:10:11.860Z,30.84
2023-04-29T11:11:11.822Z,32.33
2023-04-29T11:12:11.903Z,29.64
2023-04-29T11:13:11.833Z,30.21
2023-04-29T11:14:11.839Z,25.77
2023-04-29T11:15:11.810Z,27.95
2023-04-29T11:16:14.825Z,26.55
2023-04-29T11:17:11.774Z,26.75
2023-04-29T11:18:11.887Z,27.06
2023-04-29T11:19:11.768Z,27.53
2023-04-29T11:20:11.817Z,28.35
2023-04-29T11:21:11.788Z,27.70
2023-04-29T11:22:11.868Z,27.48
2023-04-29T11:23:11.802Z,25.00
2023-04-29T11:24:12.344Z,29.55
2023-04-29T11:25:11.836Z,26.31
2023-04-29T11:26:11.784Z,26.07
2023-04-29T11:27:11.762Z,27.52
2023-04-29T11:28:11.842Z,26.69
2023-04-29T11:29:11.843Z,27.74
2023-04-29T11:30:12.120Z,27.41
2023-04-29T11:31:11.947Z,28.90
2023-04-29T11:32:12.282Z,26.20
2023-04-29T11:33:12.078Z,26.73
2023-04-29T11:34:12.140Z,25.00
2023-04-29T11:35:13.839Z,28.15
2023-04-29T11:36:12.333Z,28.41
2023-04-29T11:37:12.080Z,29.13
2023-04-29T11:38:12.182Z,28.53
2023-04-29T11:39:12.051Z,29.04
2023-04-29T11:40:12.141Z,27.46
2023-04-29T11:41:12.029Z,28.85
2023-04-29T11:42:12.005Z,29.19
2023-04-29T11:43:12.315Z,29.53
2023-04-29T11:44:12.063Z,33.11
2023-04-29T11:45:12.203Z,28.28
2023-04-29T11:46:12.092Z,26.55
2023-04-29T11:47:11.996Z,25.00
2023-04-29T11:48:12.064Z,25.00
2023-04-29T11:49:11.999Z,28.61
2023-04-29T11:50:12.039Z,28.34
2023-04-29T11:51:12.085Z,30.42
2023-04-29T11:52:11.975Z,27.53
2023-04-29T11:53:12.016Z,26.05
2023-04-29T11:54:11.970Z,28.94
2023-04-29T11:55:12.004Z,28.61
2023-04-29T11:56:11.960Z,31.43
2023-04-29T11:57:12.316Z,31.99
2023-04-29T11:58:11.947Z,30.50
2023-04-29T11:59:11.945Z,30.81
2023-04-29T12:00:12.937Z,28.39
2023-04-29T12:01:12.069Z,27.37
2023-04-29T12:02:11.942Z,29.97
2023-04-29T12:03:12.090Z,29.60
2023-04-29T12:04:12.163Z,27.67
2023-04-29T12:05:12.012Z,26.82
2023-04-29T12:06:13.875Z,30.33
2023-04-29T12:07:11.872Z,27.36
2023-04-29T12:08:11.924Z,26.89
2023-04-29T12:09:11.876Z,29.93
2023-04-29T12:10:12.165Z,26.65
2023-04-29T12:11:11.855Z,29.01
2023-04-29T12:12:11.918Z,29.65
2023-04-29T12:13:12.860Z,27.11
2023-04-29T12:14:11.969Z,27.19
2023-04-29T12:15:12.021Z,25.53
2023-04-29T12:16:12.138Z,28.83
2023-04-29T12:17:12.075Z,28.40
2023-04-29T12:18:12.257Z,27.67
2023-04-29T12:19:12.192Z,28.18
2023-04-29T12:20:12.398Z,28.17
2023-04-29T12:21:12.267Z,28.84
2023-04-29T12:22:12.240Z,27.98
2023-04-29T12:23:12.328Z,27.46
2023-04-29T12:24:12.395Z,26.66
2023-04-29T12:25:12.455Z,30.09
2023-04-29T12:26:12.416Z,29.84
2023-04-29T12:27:12.449Z,27.60
2023-04-29T12:28:12.461Z,26.48
2023-04-29T12:29:12.554Z,26.99
2023-04-29T12:30:12.785Z,25.92
2023-04-29T12:31:12.639Z,26.81
2023-04-29T12:32:12.686Z,28.08
2023-04-29T12:33:12.722Z,28.91
2023-04-29T12:34:12.864Z,26.99
2023-04-29T12:35:12.717Z,25.90
2023-04-29T12:36:12.767Z,27.35
2023-04-29T12:37:12.758Z,27.72
2023-04-29T12:38:12.847Z,28.48
2023-04-29T12:39:12.919Z,25.41
2023-04-29T12:40:12.894Z,27.27
2023-04-29T12:41:12.908Z,28.95
2023-04-29T12:42:12.983Z,31.03
2023-04-29T12:43:13.908Z,27.02
2023-04-29T12:44:13.198Z,28.03
2023-04-29T12:45:13.055Z,27.72
2023-04-29T12:46:13.201Z,29.00
2023-04-29T12:47:13.212Z,29.41
2023-04-29T12:48:22.110Z,29.25
2023-04-29T12:49:14.186Z,29.40
2023-04-29T12:50:13.146Z,29.87
2023-04-29T12:51:13.146Z,30.92
2023-04-29T12:52:13.153Z,27.81
2023-04-29T12:53:13.159Z,30.65
2023-04-29T12:54:13.150Z,28.00
2023-04-29T12:55:13.108Z,29.09
2023-04-29T12:56:13.102Z,27.80
2023-04-29T12:57:13.088Z,29.47
2023-04-29T12:58:13.068Z,31.09
2023-04-29T12:59:13.123Z,30.89
